Time;durP1;ratioP1;P1;durP2;ratioP2;P2;SDS_P1;SDS_P2;PMS_P1;PMS_P2;Temp;Humidity;BMP_temperature;BMP_pressure;BME280_temperature;BME280_humidity;BME280_pressure;Samples;Min_cycle;Max_cycle;Signal;HPM_P1;HPM_P2
2021/06/10 00:02:26;;;;;;;15.43;8.48;;;16.50;99.90;;;15.84;80.17;97998.00;5013705;28;20057;-70
2021/06/10 00:04:54;;;;;;;11.27;9.98;;;16.40;99.90;;;15.78;82.06;98000.13;5032191;28;20046;-70
2021/06/10 00:07:41;;;;;;;15.70;10.27;;;16.30;99.90;;;15.77;82.18;97998.44;5031410;28;20072;-70
2021/06/10 00:10:14;;;;;;;13.32;9.30;;;16.20;99.90;;;15.67;82.08;98000.72;5030542;28;20041;-70
2021/06/10 00:12:43;;;;;;;11.55;8.85;;;16.20;99.90;;;15.66;82.15;98004.25;5030660;28;20087;-70
2021/06/10 00:15:18;;;;;;;10.02;8.38;;;16.20;99.90;;;15.58;82.34;98007.31;5030015;28;20045;-70
2021/06/10 00:18:06;;;;;;;8.95;7.80;;;16.20;99.90;;;15.66;81.72;98004.25;5037357;28;20777;-70
2021/06/10 00:20:53;;;;;;;9.65;8.52;;;16.10;99.90;;;15.77;81.14;98007.16;5024357;28;20097;-70
2021/06/10 00:23:40;;;;;;;12.32;8.95;;;16.20;99.90;;;15.67;81.70;97993.72;5026905;28;20101;-70
2021/06/10 00:26:28;;;;;;;11.38;8.70;;;16.20;99.90;;;15.81;80.30;98002.59;5031862;28;20124;-70
2021/06/10 00:29:15;;;;;;;11.23;8.52;;;16.20;99.90;;;15.81;80.33;98005.22;5029273;28;20065;-70
2021/06/10 00:32:03;;;;;;;10.82;8.55;;;16.20;99.90;;;15.54;81.54;98012.81;5040849;28;20048;-70
2021/06/10 00:34:50;;;;;;;10.20;8.05;;;16.10;99.90;;;15.55;82.00;98011.88;5028646;28;20497;-70
2021/06/10 00:37:27;;;;;;;13.63;8.77;;;16.10;99.90;;;15.52;81.74;98012.03;5014798;28;20508;-70
2021/06/10 00:39:54;;;;;;;11.07;8.93;;;16.10;99.90;;;15.58;81.11;98003.84;5029011;28;20163;-70
2021/06/10 00:42:21;;;;;;;11.30;8.98;;;16.10;99.90;;;15.47;82.45;98005.28;5030069;28;20505;-70
2021/06/10 00:44:48;;;;;;;12.35;10.48;;;16.00;99.90;;;15.44;82.58;98008.09;5030071;28;20041;-70
2021/06/10 00:47:15;;;;;;;12.68;9.40;;;16.00;99.90;;;15.50;81.00;98008.66;5030671;28;20072;-70
2021/06/10 00:49:43;;;;;;;12.32;8.90;;;16.00;99.90;;;15.38;81.34;98007.56;5031063;28;20473;-70
2021/06/10 00:52:10;;;;;;;9.13;7.70;;;15.80;99.90;;;15.44;80.84;98005.47;5029841;28;20049;-70
2021/06/10 00:54:38;;;;;;;15.00;9.82;;;15.90;99.90;;;15.23;82.42;98010.09;5031958;28;20042;-70
2021/06/10 00:57:06;;;;;;;13.32;9.55;;;15.80;99.90;;;15.34;81.97;98003.44;5046033;28;20088;-70
2021/06/10 00:59:33;;;;;;;13.27;9.70;;;15.80;99.90;;;15.29;82.11;98006.31;5011787;28;20096;-70
2021/06/10 01:02:00;;;;;;;11.88;10.07;;;15.80;99.90;;;15.20;81.98;98005.03;5044888;28;20111;-70
2021/06/10 01:04:28;;;;;;;15.80;9.93;;;15.70;99.90;;;15.12;82.74;98011.59;5029266;28;20073;-70
2021/06/10 01:07:24;;;;;;;12.35;9.05;;;15.60;99.90;;;15.26;81.80;98002.09;5030477;28;20038;-70
2021/06/10 01:10:13;;;;;;;12.50;10.23;;;15.70;99.90;;;15.13;82.90;98005.47;5030859;28;20501;-70
2021/06/10 01:13:12;;;;;;;15.50;11.50;;;15.60;99.90;;;15.04;84.75;97998.94;5029101;28;20409;-70
2021/06/10 01:15:42;;;;;;;12.15;9.60;;;15.60;99.90;;;15.09;82.71;98003.94;5027815;28;20519;-70
2021/06/10 01:18:12;;;;;;;13.70;11.50;;;15.60;99.90;;;15.04;83.87;98001.56;5044712;28;20075;-70
2021/06/10 01:20:42;;;;;;;12.60;8.85;;;15.60;99.90;;;15.00;82.05;98000.03;5024132;28;20140;-70
2021/06/10 01:23:52;;;;;;;15.95;9.48;;;15.50;99.90;;;14.92;83.60;98007.47;5045430;28;20053;-70
2021/06/10 01:26:59;;;;;;;14.30;9.75;;;15.50;99.90;;;14.88;83.57;98004.16;5028050;28;20455;-70
2021/06/10 01:29:26;;;;;;;12.95;9.80;;;15.40;99.90;;;15.04;82.58;98005.03;5005300;28;20119;-70
2021/06/10 01:32:15;;;;;;;13.20;10.18;;;15.40;99.90;;;14.98;82.36;98005.34;5028444;28;20175;-70
2021/06/10 01:35:03;;;;;;;13.15;11.32;;;15.40;99.90;;;14.98;83.56;98005.34;5026096;28;20048;-70
2021/06/10 01:37:57;;;;;;;15.23;11.80;;;15.40;99.90;;;14.92;84.43;98004.84;5030254;28;20073;-70
2021/06/10 01:40:45;;;;;;;13.70;11.63;;;15.40;99.90;;;14.88;84.06;98005.94;5027029;28;20037;-70
2021/06/10 01:43:37;;;;;;;11.65;9.98;;;15.40;99.90;;;14.77;83.85;98002.09;5029501;28;20045;-70
2021/06/10 01:46:27;;;;;;;16.50;10.07;;;15.40;99.90;;;14.79;83.48;98004.66;5024564;28;20175;-70
2021/06/10 01:49:00;;;;;;;12.07;10.60;;;15.40;99.90;;;14.78;83.93;97995.97;5038455;28;20045;-70
2021/06/10 01:51:30;;;;;;;14.35;9.50;;;15.30;99.90;;;14.78;84.14;98001.19;5033231;28;20052;-70
2021/06/10 01:54:02;;;;;;;13.73;9.90;;;15.30;99.90;;;14.98;82.74;98010.56;5011586;28;20042;-70
2021/06/10 01:56:30;;;;;;;15.23;11.63;;;15.40;99.90;;;14.74;84.23;98009.28;5011678;28;20041;-70
2021/06/10 01:59:21;;;;;;;14.20;12.63;;;15.30;99.90;;;14.80;84.85;98004.56;5024940;28;20041;-70
2021/06/10 02:02:09;;;;;;;13.68;10.10;;;15.30;99.90;;;14.70;84.36;98000.75;5040777;28;20546;-70
2021/06/10 02:04:57;;;;;;;12.10;10.88;;;15.30;99.90;;;14.68;83.83;98006.97;5027454;28;20529;-70
2021/06/10 02:07:24;;;;;;;16.20;11.10;;;15.30;99.90;;;14.60;84.19;98002.16;5027369;28;20045;-70
2021/06/10 02:09:51;;;;;;;13.30;11.25;;;15.20;99.90;;;14.55;84.92;98002.41;5009005;28;20046;-70
2021/06/10 02:12:18;;;;;;;16.10;14.40;;;15.20;99.90;;;14.53;85.36;97996.38;5027371;28;20041;-70
2021/06/10 02:14:46;;;;;;;13.23;11.82;;;15.20;99.90;;;14.46;85.54;98005.47;5027773;28;20061;-70
2021/06/10 02:17:17;;;;;;;17.77;13.13;;;15.10;99.90;;;14.56;85.30;97998.84;5028747;28;20037;-70
2021/06/10 02:19:44;;;;;;;16.75;13.63;;;15.10;99.90;;;14.50;86.00;97993.91;5028389;28;20183;-70
2021/06/10 02:22:12;;;;;;;18.38;14.27;;;15.00;99.90;;;14.44;86.81;97995.09;5028857;28;20492;-70
2021/06/10 02:24:39;;;;;;;16.27;12.02;;;15.00;99.90;;;14.49;85.49;97997.44;5024771;28;20046;-70
2021/06/10 02:27:07;;;;;;;14.55;11.70;;;15.00;99.90;;;14.54;84.64;97999.81;5026205;28;20041;-70
2021/06/10 02:29:34;;;;;;;17.38;13.38;;;15.00;99.90;;;14.44;85.16;97999.47;5010974;28;20555;-70
2021/06/10 02:32:01;;;;;;;20.17;14.02;;;15.00;99.90;;;14.31;86.09;98006.22;5025291;28;20084;-70
2021/06/10 02:34:28;;;;;;;23.90;16.70;;;15.00;99.90;;;14.26;86.67;98003.03;5012050;28;20037;-70
2021/06/10 02:36:55;;;;;;;18.35;16.45;;;14.80;99.90;;;14.28;87.60;98003.75;5026065;28;20190;-70
2021/06/10 02:39:22;;;;;;;23.25;14.93;;;14.80;99.90;;;14.20;87.17;98001.53;5025597;28;20521;-70
2021/06/10 02:41:52;;;;;;;25.65;15.38;;;14.80;99.90;;;14.23;86.64;97996.16;5043693;28;20046;-70
2021/06/10 02:44:20;;;;;;;22.52;18.27;;;14.90;99.90;;;14.22;86.78;97997.94;5022727;28;20452;-70
2021/06/10 02:46:47;;;;;;;24.23;18.25;;;14.90;99.90;;;14.18;87.40;98000.78;5025756;28;20041;-70
2021/06/10 02:49:17;;;;;;;22.65;17.85;;;14.80;99.90;;;14.18;87.41;98003.38;5027239;28;20072;-70
2021/06/10 02:51:45;;;;;;;26.52;17.52;;;14.80;99.90;;;14.21;87.25;98006.69;5027181;28;20164;-70
2021/06/10 02:54:17;;;;;;;23.35;18.30;;;14.80;99.90;;;14.26;87.45;98001.25;5024843;28;20038;-70
2021/06/10 02:56:46;;;;;;;23.02;17.55;;;14.90;99.90;;;14.26;87.01;97996.03;5043360;28;20072;-70
2021/06/10 02:59:19;;;;;;;21.23;18.02;;;14.90;99.90;;;14.35;87.49;97992.09;5024906;28;20052;-70
2021/06/10 03:01:47;;;;;;;26.73;18.17;;;14.90;99.90;;;14.42;87.33;97988.25;5006679;28;20124;-70
2021/06/10 03:04:16;;;;;;;30.48;21.55;;;14.90;99.90;;;14.43;88.16;97997.75;5027443;28;20052;-70
2021/06/10 03:06:44;;;;;;;22.75;18.42;;;14.90;99.90;;;14.47;87.16;97999.28;5027961;28;20504;-70
2021/06/10 03:09:13;;;;;;;27.23;19.67;;;15.00;99.90;;;14.46;86.92;97984.56;5043007;28;20041;-70
2021/06/10 03:11:43;;;;;;;22.00;18.80;;;15.10;99.90;;;14.57;86.76;97990.09;5028505;28;20128;-70
2021/06/10 03:14:12;;;;;;;20.35;17.13;;;15.10;99.90;;;14.62;85.77;97987.25;5015939;28;20073;-70
2021/06/10 03:16:41;;;;;;;22.33;18.13;;;15.10;99.90;;;14.50;85.59;97986.06;5042593;28;20501;-70
2021/06/10 03:19:08;;;;;;;24.33;19.25;;;15.10;99.90;;;14.47;85.62;97988.84;5024373;28;20049;-70
2021/06/10 03:21:36;;;;;;;18.88;14.23;;;15.10;99.90;;;14.39;85.71;97986.66;5041152;28;20103;-70
2021/06/10 03:24:04;;;;;;;19.88;17.52;;;15.10;99.90;;;14.44;86.29;97982.03;5026911;28;20045;-70
2021/06/10 03:26:34;;;;;;;22.35;15.80;;;15.10;99.90;;;14.47;86.18;97982.78;5042442;28;20160;-70
2021/06/10 03:29:03;;;;;;;15.95;14.10;;;15.10;99.90;;;14.56;84.91;97991.00;5009665;28;20034;-70
2021/06/10 03:31:32;;;;;;;14.73;13.15;;;15.10;99.90;;;14.46;85.31;97984.56;5042870;28;20761;-70
2021/06/10 03:34:00;;;;;;;18.55;16.42;;;15.10;99.90;;;14.53;85.27;97992.91;5027887;28;20049;-70
2021/06/10 03:36:31;;;;;;;15.75;14.02;;;15.10;99.90;;;14.57;84.39;97984.00;5026955;28;20450;-70
2021/06/10 03:38:59;;;;;;;21.17;16.60;;;15.10;99.90;;;14.57;85.36;97984.00;5040250;28;20078;-70
2021/06/10 03:41:27;;;;;;;18.08;15.07;;;15.10;99.90;;;14.36;85.54;97984.16;5025983;28;20060;-70
2021/06/10 03:43:55;;;;;;;21.40;18.95;;;15.10;99.90;;;14.39;86.25;97988.38;5043330;28;20118;-70
2021/06/10 03:46:23;;;;;;;20.38;15.27;;;15.00;99.90;;;14.45;84.98;97988.09;5044053;28;20107;-70
2021/06/10 03:48:51;;;;;;;24.92;19.17;;;15.00;99.90;;;14.28;86.67;97990.69;5027826;28;20151;-70
2021/06/10 03:51:19;;;;;;;21.73;19.42;;;14.90;99.90;;;14.40;86.83;97982.25;5043395;28;20079;-70
2021/06/10 03:53:48;;;;;;;23.75;19.55;;;15.00;99.90;;;14.39;86.56;97984.03;5032029;28;20076;-70
2021/06/10 03:56:16;;;;;;;21.85;18.70;;;15.00;99.90;;;14.36;86.61;97984.16;5026542;28;20038;-70
2021/06/10 03:58:43;;;;;;;22.30;17.40;;;15.00;99.90;;;14.41;86.12;97978.72;5004875;28;20115;-70
2021/06/10 04:01:10;;;;;;;23.33;19.02;;;15.00;99.90;;;14.39;86.30;97976.19;5030799;28;20041;-70
2021/06/10 04:03:37;;;;;;;19.48;17.48;;;15.00;99.90;;;14.33;86.31;97973.06;5031287;28;20390;-70
2021/06/10 04:06:04;;;;;;;20.15;18.05;;;15.00;99.90;;;14.32;86.41;97981.78;5021565;28;20049;-70
2021/06/10 04:08:31;;;;;;;20.92;16.55;;;14.90;99.90;;;14.35;86.19;97977.28;5046481;28;20068;-70
2021/06/10 04:10:59;;;;;;;18.63;15.10;;;14.90;99.90;;;14.40;85.69;97977.88;5030186;28;20037;-70
2021/06/10 04:13:26;;;;;;;19.92;16.75;;;15.00;99.90;;;14.50;85.25;97983.47;5030168;28;20099;-70
2021/06/10 04:15:53;;;;;;;25.40;18.20;;;15.10;99.90;;;14.48;86.10;97981.84;5030792;28;20046;-70
2021/06/10 04:18:21;;;;;;;21.77;15.15;;;15.10;99.90;;;14.50;86.15;97986.06;5028604;28;20120;-70
2021/06/10 04:20:49;;;;;;;20.23;15.18;;;15.20;99.90;;;14.52;85.91;97986.00;5030572;28;20661;-70
2021/06/10 04:23:16;;;;;;;20.38;18.15;;;15.30;99.90;;;14.69;85.72;97982.53;5030220;28;20037;-70
2021/06/10 04:25:43;;;;;;;27.58;18.73;;;15.30;99.90;;;14.71;85.80;97978.94;4997732;28;20521;-70
2021/06/10 04:28:31;;;;;;;22.90;20.45;;;15.30;99.90;;;14.70;86.27;97968.56;5044214;28;20052;-70
2021/06/10 04:30:59;;;;;;;21.92;19.52;;;15.40;99.90;;;14.69;86.15;97980.78;5030478;28;20073;-70
2021/06/10 04:33:27;;;;;;;22.80;20.17;;;15.40;99.90;;;14.66;85.92;97980.09;5026760;28;20425;-70
2021/06/10 04:36:16;;;;;;;30.13;20.55;;;15.40;99.90;;;14.52;87.04;97983.38;5030428;28;20045;-70
2021/06/10 04:39:04;;;;;;;28.23;20.90;;;15.30;99.90;;;14.67;87.31;97980.00;5040592;28;20060;-70
2021/06/10 04:41:52;;;;;;;24.30;20.35;;;15.30;99.90;;;14.80;86.25;97980.19;5025387;28;20088;-71
2021/06/10 04:44:39;;;;;;;26.70;20.55;;;15.40;99.90;;;14.85;86.00;97988.66;5011543;28;20061;-70
2021/06/10 04:47:27;;;;;;;23.52;19.70;;;15.50;99.90;;;14.91;86.19;97985.69;5014797;28;20061;-70
2021/06/10 04:49:54;;;;;;;26.40;20.08;;;15.50;99.90;;;14.97;86.23;97993.22;5033282;28;20056;-70
2021/06/10 04:52:21;;;;;;;22.83;20.50;;;15.60;99.90;;;15.02;86.29;97999.03;5030012;28;20045;-70
2021/06/10 04:54:48;;;;;;;28.27;18.70;;;15.60;99.90;;;15.15;86.14;97993.16;5046912;28;20408;-70
2021/06/10 04:57:15;;;;;;;24.63;19.55;;;15.70;99.90;;;15.28;86.25;97999.41;5011854;28;20046;-70
2021/06/10 04:59:42;;;;;;;24.83;20.88;;;15.90;99.90;;;15.43;85.50;97995.09;5044352;28;20045;-70
2021/06/10 05:02:09;;;;;;;23.98;20.33;;;16.00;99.90;;;15.54;85.52;98002.34;5026414;28;20088;-70
2021/06/10 05:04:36;;;;;;;24.38;20.45;;;16.20;99.90;;;15.59;85.42;98001.13;5030842;28;20054;-70
2021/06/10 05:07:04;;;;;;;25.70;19.52;;;16.30;99.90;;;15.63;85.31;97996.59;5030706;28;20095;-70
2021/06/10 05:09:31;;;;;;;22.55;19.45;;;16.40;99.90;;;15.84;84.65;97992.78;5012294;28;20042;-70
2021/06/10 05:11:58;;;;;;;20.10;18.05;;;16.50;99.90;;;15.94;84.49;97994.84;5045834;28;20111;-70
2021/06/10 05:14:25;;;;;;;21.10;18.90;;;16.70;99.90;;;16.15;83.51;97998.88;5032033;28;20064;-70
2021/06/10 05:16:52;;;;;;;20.13;16.10;;;16.90;99.90;;;16.29;83.44;97998.06;5030887;28;20045;-70
2021/06/10 05:19:19;;;;;;;22.45;18.02;;;17.00;99.90;;;16.47;82.67;97991.72;5018876;28;20077;-70
2021/06/10 05:22:06;;;;;;;22.42;15.85;;;17.20;99.90;;;16.67;81.88;97998.38;5018532;28;20042;-70
2021/06/10 05:24:53;;;;;;;19.58;17.48;;;17.40;99.90;;;16.98;81.06;98001.78;5018855;28;20053;-70
2021/06/10 05:27:20;;;;;;;21.42;18.55;;;17.60;99.90;;;17.07;82.30;98001.19;5017435;28;20053;-70
2021/06/10 05:29:46;;;;;;;18.48;16.52;;;17.90;99.90;;;17.11;82.02;97996.63;5017359;28;20470;-70
2021/06/10 05:32:13;;;;;;;21.75;16.85;;;18.00;99.90;;;17.32;81.43;97997.03;5023925;28;20197;-70
2021/06/10 05:34:40;;;;;;;18.33;15.65;;;18.20;99.90;;;17.53;81.13;98000.91;5023448;28;20038;-70
2021/06/10 05:37:07;;;;;;;21.20;19.00;;;18.40;99.90;;;17.64;80.11;98002.84;5023553;28;20087;-70
2021/06/10 05:39:34;;;;;;;22.85;20.27;;;18.50;99.90;;;17.81;80.03;98009.66;5046794;28;20044;-70
2021/06/10 05:42:02;;;;;;;19.92;17.80;;;18.60;99.90;;;17.91;79.85;97997.63;5009075;28;20131;-70
2021/06/10 05:44:29;;;;;;;21.80;18.73;;;18.70;99.90;;;18.06;80.13;97998.38;5021731;28;20049;-70
2021/06/10 05:46:56;;;;;;;26.05;22.55;;;18.90;99.90;;;18.19;79.43;97995.78;5020128;28;20045;-70
2021/06/10 05:49:23;;;;;;;24.58;20.35;;;19.00;99.90;;;18.39;78.32;97997.91;5019211;28;20056;-70
2021/06/10 05:51:50;;;;;;;22.95;20.35;;;19.20;99.90;;;18.66;77.43;97989.09;5023563;28;20589;-70
2021/06/10 05:54:18;;;;;;;19.77;17.65;;;19.40;99.90;;;18.72;77.46;97993.91;5025087;28;20107;-70
2021/06/10 05:56:44;;;;;;;28.38;22.85;;;19.60;99.90;;;18.80;75.25;97998.69;5026579;28;20196;-71
2021/06/10 05:59:11;;;;;;;28.42;24.10;;;19.80;99.90;;;18.85;74.40;98001.84;5027111;28;20129;-70
2021/06/10 06:01:38;;;;;;;24.80;21.65;;;19.80;99.90;;;19.05;75.26;98010.13;5028323;28;20041;-70
2021/06/10 06:04:05;;;;;;;28.60;25.20;;;19.90;99.90;;;18.88;71.20;98006.03;5028860;28;20107;-70
2021/06/10 06:06:33;;;;;;;25.95;23.13;;;20.00;99.90;;;18.97;71.52;98003.59;5020797;28;20103;-70
2021/06/10 06:09:00;;;;;;;28.42;25.38;;;20.10;99.90;;;19.08;70.36;98010.75;5026886;28;20074;-70
2021/06/10 06:11:27;;;;;;;33.72;28.65;;;20.10;99.90;;;19.16;68.82;98010.22;5024047;28;20061;-69
2021/06/10 06:14:06;;;;;;;29.13;25.70;;;20.10;99.90;;;19.14;69.74;98014.75;5028090;28;20037;-70
2021/06/10 06:16:53;;;;;;;31.92;27.58;;;20.10;99.90;;;19.29;68.75;98008.38;5024637;28;20045;-70
2021/06/10 06:19:21;;;;;;;37.67;29.20;;;20.20;99.90;;;19.29;68.73;98013.66;5028178;28;20033;-71
2021/06/10 06:21:48;;;;;;;30.13;26.92;;;20.10;99.90;;;19.38;69.16;98012.97;5013520;28;20038;-70
2021/06/10 06:24:15;;;;;;;30.38;27.13;;;20.20;99.90;;;19.43;68.01;98010.88;5022793;28;20046;-70
2021/06/10 06:26:42;;;;;;;31.80;26.08;;;20.30;99.90;;;19.51;67.28;98015.59;5024514;28;20410;-70
2021/06/10 06:29:10;;;;;;;29.45;26.10;;;20.40;99.90;;;19.58;67.22;98016.81;5025810;28;20049;-70
2021/06/10 06:31:37;;;;;;;28.38;25.38;;;20.50;99.90;;;19.61;67.70;98024.53;5022815;28;20057;-70
2021/06/10 06:34:05;;;;;;;28.63;25.58;;;20.50;99.90;;;19.79;65.98;98021.50;5028541;28;20120;-71
2021/06/10 06:36:32;;;;;;;33.10;27.95;;;20.70;99.90;;;19.80;65.25;98028.47;5033093;28;20558;-70
2021/06/10 06:39:05;;;;;;;26.13;23.33;;;20.60;99.90;;;20.02;66.56;98022.44;5020170;28;20469;-70
2021/06/10 06:41:35;;;;;;;27.23;24.33;;;20.80;99.90;;;20.00;65.90;98030.50;5028190;28;20042;-70
2021/06/10 06:44:04;;;;;;;29.83;25.48;;;21.00;99.90;;;19.88;64.98;98026.09;5033923;28;20069;-70
2021/06/10 06:46:32;;;;;;;29.92;25.55;;;20.90;99.90;;;20.12;65.21;98023.47;5032352;28;20147;-70
2021/06/10 06:48:59;;;;;;;25.00;21.98;;;21.00;99.90;;;20.41;65.28;98025.69;5029993;28;20060;-70
2021/06/10 06:51:29;;;;;;;25.42;22.52;;;21.10;99.90;;;20.40;64.70;98026.66;5039510;28;20164;-70
2021/06/10 06:53:56;;;;;;;26.65;23.75;;;21.30;99.90;;;20.57;64.19;98033.31;5028007;28;20061;-70
2021/06/10 06:56:24;;;;;;;24.27;21.25;;;21.50;99.90;;;20.77;63.29;98031.81;5027606;28;20091;-70
2021/06/10 06:58:52;;;;;;;25.25;22.42;;;21.70;99.90;;;20.66;63.26;98036.13;5027395;28;20049;-70
2021/06/10 07:01:20;;;;;;;30.30;24.83;;;21.70;99.90;;;20.50;63.01;98027.63;5025407;28;20041;-70
2021/06/10 07:03:47;;;;;;;23.10;20.45;;;21.70;99.90;;;20.81;62.86;98027.97;4993606;28;20141;-70
2021/06/10 07:06:14;;;;;;;24.17;21.65;;;21.90;99.90;;;21.03;61.67;98029.78;5029361;28;20044;-71
2021/06/10 07:08:42;;;;;;;26.02;22.40;;;21.90;99.90;;;20.99;62.20;98034.47;5029028;28;20097;-71
2021/06/10 07:11:09;;;;;;;24.70;21.90;;;22.10;99.90;;;21.16;61.21;98032.28;5012678;28;20046;-71
2021/06/10 07:13:36;;;;;;;25.00;21.65;;;22.10;99.90;;;20.96;61.50;98023.28;5028649;28;20102;-71
2021/06/10 07:16:04;;;;;;;23.48;21.10;;;22.10;99.90;;;21.30;61.37;98024.97;5024465;28;20100;-70
2021/06/10 07:18:31;;;;;;;25.05;19.42;;;22.20;99.90;;;21.64;60.38;98024.91;5020787;28;20057;-71
2021/06/10 07:20:58;;;;;;;21.30;18.02;;;22.40;99.90;;;21.77;60.15;98027.44;5032436;28;20464;-70
2021/06/10 07:23:27;;;;;;;23.35;20.60;;;22.50;99.90;;;21.68;60.70;98036.09;5024100;28;20123;-70
2021/06/10 07:25:55;;;;;;;23.48;18.58;;;22.40;99.90;;;21.78;60.52;98033.53;5026290;28;20111;-70
2021/06/10 07:28:22;;;;;;;18.25;16.15;;;22.60;99.90;;;22.06;59.55;98035.63;5046234;28;20078;-70
2021/06/10 07:30:49;;;;;;;24.45;17.70;;;22.80;99.90;;;22.08;59.90;98032.84;5030946;28;20156;-70
2021/06/10 07:33:16;;;;;;;18.45;16.25;;;23.10;99.90;;;22.40;58.59;98035.50;5023152;28;20049;-70
2021/06/10 07:35:44;;;;;;;18.52;15.32;;;23.20;99.90;;;22.39;58.48;98032.97;5032505;28;20395;-70
2021/06/10 07:38:13;;;;;;;19.80;16.73;;;23.40;99.90;;;22.26;56.42;98031.38;5032318;28;20045;-70
2021/06/10 07:40:40;;;;;;;19.75;16.90;;;23.20;99.90;;;22.36;59.09;98035.88;5032979;28;20176;-70
2021/06/10 07:43:08;;;;;;;17.23;14.60;;;23.30;99.90;;;22.53;58.85;98033.50;5031132;28;20440;-70
2021/06/10 07:45:36;;;;;;;16.15;12.38;;;23.40;99.90;;;23.00;56.86;98037.53;5030201;28;20314;-70
2021/06/10 07:48:04;;;;;;;16.08;13.68;;;23.50;99.90;;;23.05;57.14;98033.50;5030009;28;20115;-70
2021/06/10 07:50:32;;;;;;;13.57;12.23;;;23.60;99.90;;;23.22;57.06;98034.72;5030706;28;20485;-70
2021/06/10 07:52:59;;;;;;;20.05;13.30;;;24.00;99.90;;;23.18;56.15;98044.72;5030625;28;20041;-70
2021/06/10 07:55:27;;;;;;;18.20;14.02;;;24.10;99.90;;;23.32;53.91;98040.88;5023479;28;20037;-70
2021/06/10 07:57:55;;;;;;;14.15;12.05;;;24.10;99.90;;;23.78;54.57;98038.66;5030260;28;20350;-70
2021/06/10 08:00:23;;;;;;;14.75;12.48;;;24.40;99.90;;;23.83;54.13;98036.41;5030910;28;20053;-70
2021/06/10 08:02:57;;;;;;;17.30;12.57;;;24.60;99.90;;;23.87;54.71;98043.13;5031482;28;20060;-70
2021/06/10 08:05:24;;;;;;;12.32;9.82;;;24.70;99.90;;;23.85;54.75;98042.41;5019989;28;20045;-70
2021/06/10 08:07:53;;;;;;;12.50;10.95;;;24.80;99.90;;;23.55;52.27;98041.50;5030804;28;20103;-70
2021/06/10 08:10:21;;;;;;;12.88;10.20;;;24.90;99.90;;;23.74;53.72;98038.09;5000770;28;20099;-70
2021/06/10 08:12:48;;;;;;;11.40;9.20;;;24.90;99.90;;;23.82;53.66;98045.34;5022636;28;20357;-70
2021/06/10 08:15:16;;;;;;;10.70;9.38;;;25.10;99.90;;;23.97;55.11;98048.44;5025057;28;20038;-70
2021/06/10 08:17:43;;;;;;;11.88;9.25;;;25.20;99.90;;;24.00;52.51;98042.88;5026680;28;20057;-70
2021/06/10 08:20:12;;;;;;;14.57;9.60;;;25.50;99.90;;;24.01;52.76;98042.72;5028392;28;20053;-70
2021/06/10 08:22:40;;;;;;;11.57;10.43;;;25.70;99.90;;;24.08;52.83;98050.13;5020210;28;20045;-70
2021/06/10 08:25:08;;;;;;;10.18;8.48;;;26.00;99.90;;;24.53;52.18;98039.78;5019983;28;20115;-70
2021/06/10 08:27:37;;;;;;;11.18;9.52;;;26.40;99.90;;;24.93;51.77;98035.22;5007550;28;20174;-70
2021/06/10 08:30:06;;;;;;;12.57;9.82;;;26.50;99.90;;;24.65;50.92;98031.66;5028792;28;20056;-70
2021/06/10 08:32:33;;;;;;;11.07;8.40;;;26.50;99.90;;;25.06;50.93;98033.09;5022775;28;20049;-70
2021/06/10 08:35:00;;;;;;;11.02;7.78;;;26.80;99.90;;;25.73;49.19;98038.22;5023172;28;20893;-70
2021/06/10 08:37:28;;;;;;;8.55;7.57;;;27.00;99.90;;;25.53;48.34;98034.88;5030401;28;20520;-70
2021/06/10 08:39:55;;;;;;;8.52;7.47;;;27.20;99.90;;;25.93;47.78;98034.47;5030485;28;20041;-70
2021/06/10 08:42:23;;;;;;;9.30;6.95;;;27.40;99.90;;;26.17;47.77;98041.88;5029246;28;20045;-71
2021/06/10 08:44:51;;;;;;;6.82;6.13;;;27.70;99.90;;;26.44;46.13;98038.25;5032312;28;20103;-71
2021/06/10 08:47:22;;;;;;;11.48;8.10;;;27.90;99.90;;;26.38;45.71;98041.53;5038253;28;20063;-71
2021/06/10 08:49:50;;;;;;;;;;;28.00;99.90;;;25.94;46.08;98045.97;5033231;28;20122;-71
2021/06/10 08:52:17;;;;;;;9.85;6.80;;;27.80;99.90;;;26.24;45.28;98048.25;5044057;28;19995;-70
2021/06/10 08:54:44;;;;;;;8.75;6.30;;;28.00;99.90;;;27.66;43.44;98039.13;5025601;28;20069;-71
2021/06/10 08:57:11;;;;;;;8.43;7.38;;;28.50;99.90;;;27.67;42.99;98030.97;5023796;28;20041;-71
2021/06/10 08:59:39;;;;;;;8.63;5.78;;;28.60;99.90;;;28.28;42.72;98039.63;5029296;28;20053;-71
2021/06/10 09:02:09;;;;;;;16.38;8.23;;;28.90;99.90;;;26.73;42.78;98044.31;4996837;28;20042;-71
2021/06/10 09:04:36;;;;;;;8.55;7.10;;;28.40;99.90;;;26.52;44.74;98045.47;5014392;28;20053;-71
2021/06/10 09:07:04;;;;;;;9.13;6.97;;;28.00;99.90;;;26.14;43.01;98044.84;5025748;28;20108;-71
2021/06/10 09:09:40;;;;;;;7.28;5.97;;;27.80;99.90;;;27.28;41.67;98044.00;5029775;28;20513;-70
2021/06/10 09:12:11;;;;;;;8.73;7.07;;;27.80;99.90;;;26.14;41.81;98042.19;5028346;28;20049;-70
2021/06/10 09:14:58;;;;;;;11.50;7.00;;;27.30;99.90;;;26.72;43.47;98050.66;5019582;28;20057;-70
2021/06/10 09:17:39;;;;;;;8.30;6.97;;;27.20;99.90;;;27.85;41.82;98041.56;5040336;28;20387;-71
2021/06/10 09:20:46;;;;;;;10.88;9.70;;;28.20;99.90;;;27.50;39.66;98042.59;5034440;28;20102;-71
2021/06/10 09:23:27;;;;;;;11.05;9.00;;;28.50;99.90;;;27.69;38.92;98050.31;5020894;28;20056;-70
2021/06/10 09:26:03;;;;;;;10.35;8.02;;;28.60;99.90;;;27.95;39.15;98052.06;5021776;28;20064;-70
2021/06/10 09:28:35;;;;;;;10.75;7.93;;;29.00;99.90;;;28.41;38.05;98048.94;5023750;28;20042;-70
2021/06/10 09:31:02;;;;;;;9.65;7.45;;;29.40;99.90;;;28.14;39.32;98050.94;5025376;28;20099;-70
2021/06/10 09:33:42;;;;;;;8.70;7.15;;;29.90;99.60;;;28.43;38.65;98042.44;5020657;28;20045;-70
2021/06/10 09:36:20;;;;;;;8.88;6.43;;;30.10;99.50;;;27.64;37.23;98049.13;5017825;28;20059;-70
2021/06/10 09:39:15;;;;;;;5.53;4.82;;;29.40;98.00;;;28.49;35.83;98041.81;5020036;28;20526;-71
2021/06/10 09:42:08;;;;;;;9.55;6.10;;;29.50;97.90;;;28.22;34.74;98040.28;5028080;28;20123;-70
2021/06/10 09:44:59;;;;;;;5.25;4.53;;;29.50;96.70;;;28.96;33.77;98045.56;5023821;28;20049;-70
2021/06/10 09:47:51;;;;;;;;;;;30.00;96.40;;;28.15;32.89;98049.94;5033653;28;20061;-71
2021/06/10 09:50:52;;;;;;;9.10;4.97;;;30.40;94.20;;;28.25;31.62;98047.94;5026604;28;19921;-71
2021/06/10 09:53:39;;;;;;;7.00;3.93;;;29.90;93.80;;;28.48;32.03;98041.97;5002207;28;20057;-71
2021/06/10 09:56:27;;;;;;;5.28;4.05;;;30.00;93.70;;;28.89;33.14;98040.06;5016975;28;20050;-71
2021/06/10 09:59:47;;;;;;;6.28;4.22;;;30.40;94.30;;;29.09;32.63;98026.38;5016079;28;20045;-71
2021/06/10 10:02:35;;;;;;;5.03;3.42;;;31.00;93.40;;;29.77;32.22;98038.31;5029319;28;20050;-70
2021/06/10 10:05:25;;;;;;;4.22;3.00;;;31.40;93.60;;;29.11;29.34;98032.38;5025844;28;20510;-71
2021/06/10 10:07:53;;;;;;;4.43;2.40;;;31.40;90.40;;;29.48;28.59;98030.88;5040045;28;20038;-71
2021/06/10 10:10:22;;;;;;;2.90;2.17;;;31.40;88.80;;;29.60;28.14;98029.47;5022259;28;20041;-70
2021/06/10 10:12:50;;;;;;;5.03;1.98;;;31.60;87.50;;;30.54;26.86;98029.38;5023810;28;20038;-71
2021/06/10 10:15:18;;;;;;;4.78;3.15;;;31.90;86.10;;;30.87;26.70;98034.47;5022017;28;20099;-70
2021/06/10 10:17:47;;;;;;;5.75;3.47;;;32.10;85.80;;;30.34;28.99;98021.84;5037647;28;20045;-70
2021/06/10 10:20:16;;;;;;;4.60;3.10;;;31.80;87.80;;;30.08;27.44;98019.50;5028157;28;20417;-71
2021/06/10 10:22:45;;;;;;;4.45;2.85;;;31.70;85.30;;;29.83;28.89;98016.16;5023777;28;20057;-71
2021/06/10 10:25:12;;;;;;;6.47;3.53;;;31.60;85.70;;;29.87;30.58;98017.47;5008400;28;20034;-71
2021/06/10 10:27:39;;;;;;;4.80;3.67;;;31.50;87.60;;;29.19;32.78;98005.59;5022371;28;20041;-70
2021/06/10 10:30:28;;;;;;;5.55;3.00;;;31.10;89.00;;;28.84;30.98;98001.53;5024063;28;20037;-70
2021/06/10 10:33:21;;;;;;;4.20;2.75;;;30.90;86.60;;;29.64;31.51;98000.56;5018960;28;20192;-70